Time;durP1;ratioP1;P1;durP2;ratioP2;P2;SDS_P1;SDS_P2;PMS_P1;PMS_P2;Temp;Humidity;BMP_temperature;BMP_pressure;BME280_temperature;BME280_humidity;BME280_pressure;Samples;Min_cycle;Max_cycle;Signal;HPM_P1;HPM_P2
2021/04/06 00:00:00;;;;;;;7.22;3.65;;;4.10;57.90;;;;;;4971598;28;20038;-59
2021/04/06 00:02:30;;;;;;;7.65;3.45;;;4.00;58.00;;;;;;4975978;28;20043;-61
2021/04/06 00:04:57;;;;;;;11.65;3.97;;;4.00;58.00;;;;;;4974216;28;20396;-59
2021/04/06 00:07:25;;;;;;;7.38;3.67;;;4.00;58.00;;;;;;4973239;28;20104;-59
2021/04/06 00:09:54;;;;;;;12.70;4.10;;;4.00;58.00;;;;;;4978815;28;20584;-59
2021/04/06 00:12:22;;;;;;;9.85;4.07;;;4.00;58.10;;;;;;4973023;28;20038;-59
2021/04/06 00:14:52;;;;;;;7.57;3.72;;;3.90;58.00;;;;;;4981601;28;20089;-59
2021/04/06 00:17:19;;;;;;;10.68;3.50;;;3.90;57.90;;;;;;4981061;28;20704;-59
2021/04/06 00:19:46;;;;;;;9.43;3.63;;;3.90;57.90;;;;;;4981102;28;20139;-59
2021/04/06 00:22:15;;;;;;;6.05;3.05;;;3.90;58.10;;;;;;4976944;28;20841;-59
2021/04/06 00:24:44;;;;;;;8.40;3.70;;;3.80;58.10;;;;;;4979554;28;20033;-59
2021/04/06 00:27:31;;;;;;;12.80;3.70;;;3.90;58.20;;;;;;4981891;28;20458;-59
2021/04/06 00:30:03;;;;;;;12.23;3.85;;;3.80;58.20;;;;;;4988671;28;20046;-59
2021/04/06 00:32:32;;;;;;;11.95;3.78;;;3.80;58.40;;;;;;4978353;28;20041;-59
2021/04/06 00:35:00;;;;;;;9.38;3.65;;;3.80;58.40;;;;;;4976354;28;20037;-60
2021/04/06 00:37:29;;;;;;;6.97;3.92;;;3.80;58.50;;;;;;4978667;28;20038;-59
2021/04/06 00:40:06;;;;;;;9.82;3.10;;;3.80;58.50;;;;;;4981151;28;20042;-59
2021/04/06 00:42:33;;;;;;;7.05;2.97;;;3.80;58.50;;;;;;4966515;28;20104;-59
2021/04/06 00:45:07;;;;;;;11.55;3.05;;;3.80;58.60;;;;;;4979385;28;20060;-60
2021/04/06 00:47:34;;;;;;;9.73;3.40;;;3.80;58.60;;;;;;4979475;28;20049;-59
2021/04/06 00:50:09;;;;;;;8.02;2.88;;;3.80;58.60;;;;;;4973089;28;20046;-59
2021/04/06 00:52:44;;;;;;;7.75;2.92;;;3.80;58.70;;;;;;4972955;28;20056;-59
2021/04/06 00:55:16;;;;;;;11.60;2.97;;;3.80;58.80;;;;;;4975318;28;20454;-59
2021/04/06 00:57:45;;;;;;;4.72;2.63;;;3.80;58.80;;;;;;4977930;28;20126;-59
2021/04/06 01:00:30;;;;;;;8.70;2.58;;;3.80;58.90;;;;;;4973275;28;20044;-59
2021/04/06 01:02:59;;;;;;;7.78;2.58;;;3.90;58.80;;;;;;4971994;28;20629;-59
2021/04/06 01:05:26;;;;;;;4.72;2.67;;;3.80;58.80;;;;;;4979422;28;20625;-59
2021/04/06 01:07:54;;;;;;;14.45;3.13;;;3.80;58.80;;;;;;4969248;28;20051;-58
2021/04/06 01:10:23;;;;;;;7.07;2.72;;;3.80;58.90;;;;;;4978080;28;20034;-59
2021/04/06 01:12:48;;;;;;;9.38;3.00;;;3.80;59.10;;;;;;4977172;28;20269;-59
2021/04/06 01:15:17;;;;;;;12.60;3.13;;;3.80;59.10;;;;;;4974778;28;20056;-59
2021/04/06 01:17:44;;;;;;;11.23;2.80;;;3.80;59.10;;;;;;4978767;28;20531;-59
2021/04/06 01:20:14;;;;;;;11.00;2.83;;;3.80;59.20;;;;;;4973226;28;20563;-59
2021/04/06 01:22:41;;;;;;;6.07;2.55;;;3.80;59.20;;;;;;4977379;28;20462;-59
2021/04/06 01:27:35;;;;;;;9.20;3.10;;;3.80;59.90;;;;;;4985763;28;21360;-61
2021/04/06 01:30:01;;;;;;;9.52;2.75;;;3.90;59.40;;;;;;4995009;28;20045;-61
2021/04/06 01:32:28;;;;;;;9.52;3.08;;;3.90;59.50;;;;;;4996594;28;20040;-61
2021/04/06 01:34:55;;;;;;;14.20;2.58;;;3.90;59.60;;;;;;4994136;28;20437;-61
2021/04/06 01:37:28;;;;;;;13.32;2.78;;;3.90;60.20;;;;;;4993554;28;20044;-61
2021/04/06 01:39:56;;;;;;;12.70;3.00;;;3.90;59.60;;;;;;4997826;28;20037;-61
2021/04/06 01:42:25;;;;;;;10.20;2.85;;;3.90;59.70;;;;;;5011865;28;20038;-61
2021/04/06 01:44:52;;;;;;;14.15;3.22;;;4.00;60.00;;;;;;5002255;28;20505;-61
2021/04/06 01:47:18;;;;;;;12.20;2.97;;;4.00;60.30;;;;;;4989807;28;20293;-61
2021/04/06 01:49:47;;;;;;;9.07;2.53;;;4.20;60.70;;;;;;4991917;28;20092;-61
2021/04/06 01:52:13;;;;;;;13.43;2.83;;;4.30;60.90;;;;;;4997404;28;20056;-61
2021/04/06 01:54:41;;;;;;;17.27;3.60;;;4.40;61.00;;;;;;4989324;28;20038;-61
2021/04/06 01:57:15;;;;;;;11.95;3.47;;;4.50;61.00;;;;;;4994360;28;20041;-61
2021/04/06 02:00:06;;;;;;;13.57;3.40;;;4.60;61.00;;;;;;4990390;28;20058;-62
2021/04/06 02:02:35;;;;;;;10.55;2.88;;;4.70;60.90;;;;;;4995766;28;23336;-60
2021/04/06 02:05:02;;;;;;;10.13;2.78;;;4.80;61.60;;;;;;4993421;28;20683;-61
2021/04/06 02:07:32;;;;;;;14.57;2.58;;;4.90;60.80;;;;;;4992291;28;20374;-61
2021/04/06 02:09:59;;;;;;;9.88;2.30;;;4.90;60.60;;;;;;4988179;28;21152;-61
2021/04/06 02:12:25;;;;;;;11.40;2.60;;;4.90;60.40;;;;;;4988723;28;20579;-61
2021/04/06 02:14:58;;;;;;;12.43;2.35;;;4.90;60.30;;;;;;4990262;28;20360;-61
2021/04/06 02:17:24;;;;;;;8.18;2.53;;;4.90;60.20;;;;;;4990257;28;20033;-61
2021/04/06 02:19:49;;;;;;;11.75;2.83;;;4.90;60.20;;;;;;4992988;28;20088;-61
2021/04/06 02:22:17;;;;;;;14.18;2.67;;;4.90;61.10;;;;;;4993317;28;20033;-61
2021/04/06 02:24:53;;;;;;;12.52;2.45;;;4.90;60.60;;;;;;4993878;28;20045;-61
2021/04/06 02:27:29;;;;;;;9.05;2.17;;;5.00;60.80;;;;;;4992101;28;20143;-63
2021/04/06 02:30:01;;;;;;;9.70;2.20;;;5.10;61.00;;;;;;5001823;28;20037;-63
2021/04/06 02:32:29;;;;;;;13.68;2.10;;;5.20;61.00;;;;;;4989364;28;20855;-63
2021/04/06 02:35:01;;;;;;;16.33;2.10;;;5.20;60.80;;;;;;4990498;28;20566;-63
2021/04/06 02:37:30;;;;;;;20.45;2.40;;;5.20;60.60;;;;;;4989124;28;20390;-63
2021/04/06 02:39:59;;;;;;;12.52;2.60;;;5.20;60.50;;;;;;4990338;28;20056;-63
2021/04/06 02:42:36;;;;;;;10.02;2.08;;;5.30;60.60;;;;;;5005600;28;20048;-62
2021/04/06 02:45:17;;;;;;;10.52;2.22;;;5.30;60.90;;;;;;4998096;28;20577;-63
2021/04/06 02:47:53;;;;;;;20.10;2.03;;;5.30;60.90;;;;;;4994661;28;20048;-63
2021/04/06 02:50:30;;;;;;;16.45;2.28;;;5.40;61.00;;;;;;4991198;28;20042;-63
2021/04/06 02:52:55;;;;;;;10.40;2.03;;;5.40;61.20;;;;;;5005524;28;20045;-63
2021/04/06 02:55:22;;;;;;;10.80;2.30;;;5.50;61.10;;;;;;4984640;28;20635;-63
2021/04/06 02:57:50;;;;;;;7.72;2.03;;;5.50;61.10;;;;;;4987550;28;20409;-63
2021/04/06 03:00:27;;;;;;;10.38;2.58;;;5.60;61.10;;;;;;4990300;28;20580;-63
2021/04/06 03:03:01;;;;;;;11.93;2.35;;;5.60;61.20;;;;;;5005365;28;20158;-63
2021/04/06 03:05:47;;;;;;;13.48;2.42;;;5.70;61.20;;;;;;4988115;28;20045;-63
2021/04/06 03:08:13;;;;;;;23.15;2.53;;;5.70;61.20;;;;;;4986239;28;20044;-62
2021/04/06 03:10:38;;;;;;;14.32;2.28;;;5.70;61.10;;;;;;4996418;28;20407;-62
2021/04/06 03:13:07;;;;;;;14.20;2.40;;;5.70;61.10;;;;;;4990747;28;20514;-63
2021/04/06 03:15:32;;;;;;;14.63;2.00;;;5.70;61.10;;;;;;5001390;28;20048;-63
2021/04/06 03:18:06;;;;;;;14.65;2.17;;;5.70;61.00;;;;;;4997542;28;20045;-62
2021/04/06 03:20:35;;;;;;;18.35;2.35;;;5.70;61.00;;;;;;4992245;28;20068;-63
2021/04/06 03:23:06;;;;;;;11.10;1.83;;;5.70;61.10;;;;;;5000594;28;20041;-63
2021/04/06 03:25:33;;;;;;;20.15;2.63;;;5.70;61.10;;;;;;4989047;28;20807;-63
2021/04/06 03:28:10;;;;;;;16.23;2.20;;;5.70;61.00;;;;;;4989415;28;20046;-63
2021/04/06 03:30:36;;;;;;;16.88;2.05;;;5.70;60.80;;;;;;4983521;28;20042;-63
2021/04/06 03:33:08;;;;;;;16.70;1.95;;;5.70;60.70;;;;;;4994764;28;20042;-63
2021/04/06 03:35:37;;;;;;;18.65;2.10;;;5.60;60.60;;;;;;4988962;28;20593;-63
2021/04/06 03:38:05;;;;;;;20.90;2.20;;;5.60;60.50;;;;;;4988421;28;20509;-63
2021/04/06 03:40:32;;;;;;;13.68;2.47;;;5.50;60.50;;;;;;4988669;28;20041;-62
2021/04/06 03:43:13;;;;;;;22.73;2.40;;;5.50;60.40;;;;;;4986120;28;20042;-63
2021/04/06 03:46:01;;;;;;;26.75;2.80;;;5.40;60.10;;;;;;4999451;28;20095;-63
2021/04/06 03:48:28;;;;;;;22.05;2.90;;;5.40;60.00;;;;;;5005163;28;20040;-62
2021/04/06 03:50:58;;;;;;;16.88;2.67;;;5.30;60.10;;;;;;4996310;28;20263;-63
2021/04/06 03:53:26;;;;;;;28.50;2.60;;;5.20;60.00;;;;;;4997958;28;20367;-63
2021/04/06 03:56:06;;;;;;;18.45;2.95;;;5.20;60.00;;;;;;4995907;28;20782;-62
2021/04/06 03:58:40;;;;;;;27.90;3.25;;;5.10;60.10;;;;;;4991472;28;20049;-60
2021/04/06 04:01:12;;;;;;;26.83;2.65;;;5.10;60.40;;;;;;4994132;28;20042;-61
2021/04/06 04:03:39;;;;;;;29.13;2.78;;;5.10;60.70;;;;;;4992084;28;20051;-60
2021/04/06 04:06:05;;;;;;;23.65;3.00;;;5.20;61.00;;;;;;4994585;28;20036;-61
2021/04/06 04:08:31;;;;;;;26.30;3.05;;;5.20;61.10;;;;;;4992926;28;20136;-60
2021/04/06 04:10:57;;;;;;;22.52;2.58;;;5.20;61.00;;;;;;4997594;28;20041;-60
2021/04/06 04:13:22;;;;;;;21.67;3.10;;;5.30;60.80;;;;;;4992002;28;20056;-60
2021/04/06 04:15:48;;;;;;;16.65;2.75;;;5.20;60.50;;;;;;4999931;28;20142;-60
2021/04/06 04:18:14;;;;;;;22.13;2.78;;;5.20;60.40;;;;;;5005497;28;23883;-60
2021/04/06 04:20:43;;;;;;;26.23;3.33;;;5.10;60.20;;;;;;5004783;28;20463;-59
2021/04/06 04:23:09;;;;;;;23.88;3.30;;;5.10;60.10;;;;;;5009007;28;20076;-60
2021/04/06 04:25:35;;;;;;;17.98;3.33;;;5.00;60.00;;;;;;5011617;28;20115;-61
2021/04/06 04:28:00;;;;;;;20.25;2.83;;;4.90;60.00;;;;;;4990505;28;20037;-61
2021/04/06 04:30:37;;;;;;;19.20;2.90;;;4.90;60.00;;;;;;4994282;28;20461;-60
2021/04/06 04:33:04;;;;;;;32.08;3.22;;;4.90;60.00;;;;;;4989494;28;20037;-59
2021/04/06 04:35:30;;;;;;;29.30;2.72;;;4.80;59.90;;;;;;4989903;28;20052;-60
2021/04/06 04:37:56;;;;;;;20.30;2.60;;;4.70;60.00;;;;;;4994059;28;20510;-60
2021/04/06 04:40:24;;;;;;;35.72;3.55;;;4.70;60.10;;;;;;4992827;28;20664;-60
2021/04/06 04:42:51;;;;;;;19.63;2.72;;;4.60;60.20;;;;;;4994525;28;20041;-60
2021/04/06 04:45:17;;;;;;;24.88;2.70;;;4.60;60.10;;;;;;4986867;28;20056;-60
2021/04/06 04:47:45;;;;;;;25.67;3.15;;;4.60;60.20;;;;;;4994418;28;20046;-60
2021/04/06 04:50:14;;;;;;;18.52;2.35;;;4.50;60.20;;;;;;4996470;28;20160;-60
2021/04/06 04:52:43;;;;;;;19.92;3.40;;;4.50;60.30;;;;;;4994302;28;20251;-60
2021/04/06 04:55:11;;;;;;;25.08;2.40;;;4.50;60.50;;;;;;4992815;28;20034;-60
2021/04/06 04:57:36;;;;;;;20.98;2.63;;;4.50;60.60;;;;;;4996219;28;20107;-60
2021/04/06 05:00:03;;;;;;;34.95;3.22;;;4.50;60.60;;;;;;4991043;28;20774;-60
2021/04/06 05:02:29;;;;;;;18.08;2.60;;;4.50;60.60;;;;;;4995494;28;20745;-60
2021/04/06 05:04:57;;;;;;;17.90;2.83;;;4.50;60.70;;;;;;4991157;28;20046;-60
2021/04/06 05:07:22;;;;;;;17.42;3.05;;;4.50;61.10;;;;;;4992548;28;20045;-60
2021/04/06 05:09:48;;;;;;;24.42;2.97;;;4.60;61.50;;;;;;4988095;28;20336;-60
2021/04/06 05:12:14;;;;;;;20.33;3.15;;;4.70;61.70;;;;;;4990429;28;20345;-59
2021/04/06 05:14:40;;;;;;;22.60;3.22;;;4.70;61.60;;;;;;5000236;28;20033;-59
2021/04/06 05:17:06;;;;;;;24.02;3.10;;;4.80;61.60;;;;;;5007213;28;20045;-59
2021/04/06 05:19:31;;;;;;;23.60;4.18;;;4.90;61.90;;;;;;5004165;28;20030;-60
2021/04/06 05:21:57;;;;;;;26.92;3.35;;;5.10;62.30;;;;;;4995247;28;20041;-60
2021/04/06 05:24:22;;;;;;;33.58;4.00;;;5.10;62.20;;;;;;4997144;28;20527;-60
2021/04/06 05:26:48;;;;;;;27.65;3.55;;;5.30;62.20;;;;;;4987550;28;20391;-60
2021/04/06 05:29:13;;;;;;;27.75;4.00;;;5.40;62.10;;;;;;5005489;28;20124;-60
2021/04/06 05:31:41;;;;;;;19.92;3.70;;;5.50;61.90;;;;;;5004040;28;20045;-60
2021/04/06 05:34:07;;;;;;;22.52;3.90;;;5.50;61.60;;;;;;4992890;28;20148;-60
2021/04/06 05:36:33;;;;;;;23.08;3.20;;;5.50;61.40;;;;;;4998850;28;20048;-60
2021/04/06 05:38:58;;;;;;;24.15;3.33;;;5.50;61.20;;;;;;5003578;28;20034;-59
2021/04/06 05:41:25;;;;;;;31.25;3.75;;;5.50;61.10;;;;;;5004666;28;20237;-60
2021/04/06 05:44:02;;;;;;;44.47;4.18;;;5.50;61.10;;;;;;4993119;28;20428;-59
2021/04/06 05:46:32;;;;;;;26.52;3.75;;;5.40;61.00;;;;;;4999578;28;20049;-59
2021/04/06 05:49:05;;;;;;;27.75;3.67;;;5.40;61.00;;;;;;5002532;28;20219;-59
2021/04/06 05:51:31;;;;;;;15.70;3.40;;;5.40;61.20;;;;;;4996556;28;20821;-59
2021/04/06 05:53:57;;;;;;;25.90;3.42;;;5.50;61.70;;;;;;5002241;28;20510;-59
2021/04/06 05:56:25;;;;;;;19.63;3.10;;;5.60;61.80;;;;;;5001680;28;20495;-62
2021/04/06 05:58:55;;;;;;;22.50;3.63;;;5.70;61.80;;;;;;5000246;28;20550;-62
2021/04/06 06:01:21;;;;;;;34.95;4.45;;;5.80;61.80;;;;;;4996589;28;20098;-62
2021/04/06 06:03:46;;;;;;;24.65;3.30;;;5.80;61.20;;;;;;4999018;28;20398;-63
2021/04/06 06:06:13;;;;;;;38.33;4.20;;;5.80;60.90;;;;;;4993849;28;20048;-62
2021/04/06 06:08:46;;;;;;;31.00;3.58;;;5.80;60.80;;;;;;5004355;28;20076;-62
2021/04/06 06:11:12;;;;;;;31.90;3.33;;;5.80;60.90;;;;;;4997716;28;20221;-62
2021/04/06 06:13:37;;;;;;;31.75;3.70;;;5.90;61.10;;;;;;5019295;28;20041;-62
2021/04/06 06:16:19;;;;;;;27.58;3.65;;;5.90;61.10;;;;;;4990838;28;20045;-62
2021/04/06 06:19:06;;;;;;;34.78;3.90;;;5.90;61.10;;;;;;5000614;28;20980;-62
2021/04/06 06:21:37;;;;;;;20.83;3.72;;;6.00;62.30;;;;;;4999895;28;20068;-62
2021/04/06 06:24:05;;;;;;;23.50;3.35;;;6.20;62.30;;;;;;4998858;28;20037;-62
2021/04/06 06:26:30;;;;;;;34.97;4.30;;;6.50;62.90;;;;;;4999106;28;20383;-62
2021/04/06 06:29:06;;;;;;;27.35;4.43;;;6.80;63.30;;;;;;5012692;28;20048;-61
2021/04/06 06:31:34;;;;;;;25.58;3.95;;;7.20;63.20;;;;;;5013079;28;20049;-62
2021/04/06 06:34:01;;;;;;;23.58;3.40;;;7.40;62.40;;;;;;5009447;28;20042;-62
2021/04/06 06:36:27;;;;;;;29.48;3.65;;;7.50;61.40;;;;;;5014460;28;20044;-62
2021/04/06 06:39:03;;;;;;;19.98;3.58;;;7.40;60.30;;;;;;5008548;28;20029;-62
2021/04/06 06:41:31;;;;;;;25.33;2.95;;;7.30;60.30;;;;;;5016812;28;20063;-62
2021/04/06 06:43:58;;;;;;;14.45;2.72;;;7.20;60.30;;;;;;5013596;28;20392;-62
2021/04/06 06:46:31;;;;;;;16.85;2.88;;;7.10;60.10;;;;;;5025959;28;20117;-62
2021/04/06 06:49:01;;;;;;;18.02;3.15;;;7.00;60.00;;;;;;5015186;28;20503;-62
2021/04/06 06:51:32;;;;;;;20.58;2.83;;;7.00;60.30;;;;;;5014861;28;20121;-62
2021/04/06 06:54:00;;;;;;;18.52;2.90;;;7.20;61.00;;;;;;5013004;28;20509;-62
2021/04/06 06:56:36;;;;;;;16.52;2.95;;;7.40;61.40;;;;;;5011242;28;20045;-62
2021/04/06 06:59:05;;;;;;;18.73;3.65;;;7.50;60.80;;;;;;4997786;28;20045;-62
2021/04/06 07:01:33;;;;;;;12.88;3.42;;;7.70;60.60;;;;;;5007110;28;20040;-62
2021/04/06 07:04:03;;;;;;;14.10;2.80;;;7.80;60.20;;;;;;5009562;28;20041;-62
2021/04/06 07:06:29;;;;;;;15.52;3.67;;;7.80;60.00;;;;;;5013670;28;20072;-62
2021/04/06 07:08:57;;;;;;;13.80;2.83;;;7.90;60.00;;;;;;5011894;28;20075;-62
2021/04/06 07:11:26;;;;;;;14.88;2.55;;;8.00;60.20;;;;;;5013545;28;20434;-62
2021/04/06 07:13:53;;;;;;;9.82;3.10;;;8.20;60.90;;;;;;5013980;28;20052;-62
2021/04/06 07:16:20;;;;;;;12.32;3.00;;;8.40;60.50;;;;;;5020865;28;20042;-62
2021/04/06 07:18:50;;;;;;;13.13;3.20;;;8.60;60.40;;;;;;5008543;28;20034;-62
2021/04/06 07:21:18;;;;;;;16.63;3.28;;;8.80;60.40;;;;;;5016258;28;20052;-62
2021/04/06 07:24:00;;;;;;;13.80;3.75;;;8.90;60.00;;;;;;5011562;28;20776;-62
2021/04/06 07:26:26;;;;;;;13.45;3.80;;;9.00;59.60;;;;;;5023281;23;20065;-61
2021/04/06 07:28:58;;;;;;;12.77;2.60;;;9.00;59.00;;;;;;5003651;28;20034;-61
2021/04/06 07:31:24;;;;;;;16.33;3.45;;;9.00;58.80;;;;;;5009090;28;20049;-61
2021/04/06 07:33:51;;;;;;;15.55;3.60;;;8.90;59.30;;;;;;4995751;28;20472;-61
2021/04/06 07:36:23;;;;;;;16.15;3.28;;;9.10;59.60;;;;;;5004364;28;20038;-61
2021/04/06 07:38:52;;;;;;;9.13;2.75;;;9.20;59.10;;;;;;5006417;28;20029;-61
2021/04/06 07:41:22;;;;;;;13.55;3.08;;;9.20;58.80;;;;;;5008749;28;20041;-61
2021/04/06 07:43:56;;;;;;;10.65;3.30;;;9.30;59.10;;;;;;4993906;28;20104;-62
2021/04/06 07:46:34;;;;;;;10.98;2.42;;;9.50;59.20;;;;;;5004142;28;20034;-61
2021/04/06 07:49:19;;;;;;;17.45;3.00;;;9.70;58.30;;;;;;4996949;28;20048;-61
2021/04/06 07:51:45;;;;;;;12.65;3.38;;;9.70;57.80;;;;;;5012813;28;20085;-61
2021/04/06 07:54:14;;;;;;;10.20;2.75;;;10.40;59.90;;;;;;4994092;28;20408;-61
2021/04/06 07:56:52;;;;;;;9.30;2.50;;;11.30;58.60;;;;;;4997827;28;20045;-61
2021/04/06 07:59:24;;;;;;;12.95;2.58;;;12.10;56.50;;;;;;5003197;28;20045;-61
2021/04/06 08:01:50;;;;;;;9.52;2.20;;;12.70;56.30;;;;;;4997006;28;20042;-61
2021/04/06 08:04:16;;;;;;;11.45;2.72;;;13.50;54.60;;;;;;5002849;28;20030;-61
2021/04/06 08:06:44;;;;;;;9.40;2.70;;;13.50;51.60;;;;;;5007109;28;20038;-61
2021/04/06 08:09:35;;;;;;;12.07;3.20;;;12.90;50.20;;;;;;5002911;28;20045;-61
2021/04/06 08:12:14;;;;;;;14.18;3.45;;;12.30;50.00;;;;;;5006748;28;20033;-61
2021/04/06 08:15:02;;;;;;;8.98;2.50;;;11.70;50.80;;;;;;5003227;28;20121;-61
2021/04/06 08:17:27;;;;;;;11.32;2.80;;;11.30;51.20;;;;;;5011446;28;20033;-61
2021/04/06 08:19:59;;;;;;;11.13;3.13;;;10.90;51.80;;;;;;5011850;28;20407;-61
2021/04/06 08:22:31;;;;;;;13.77;3.67;;;10.70;52.00;;;;;;4996785;28;20641;-61
2021/04/06 08:25:15;;;;;;;7.38;2.97;;;11.30;56.00;;;;;;4985204;28;20090;-61
2021/04/06 08:27:46;;;;;;;7.60;2.42;;;12.50;53.50;;;;;;5000833;28;20440;-61
2021/04/06 08:30:26;;;;;;;10.65;2.65;;;13.00;51.60;;;;;;5003404;28;20041;-61
2021/04/06 08:32:58;;;;;;;12.00;2.22;;;14.00;51.70;;;;;;5008803;28;20157;-62
2021/04/06 08:35:45;;;;;;;11.80;2.53;;;15.50;49.40;;;;;;5008144;28;20491;-61
2021/04/06 08:38:20;;;;;;;13.73;2.42;;;16.60;46.70;;;;;;5005708;28;20037;-61
2021/04/06 08:41:00;;;;;;;7.65;2.08;;;17.70;44.60;;;;;;5006251;28;20350;-62
2021/04/06 08:43:27;;;;;;;13.10;2.40;;;18.70;41.60;;;;;;5008837;28;20048;-62
2021/04/06 08:46:23;;;;;;;10.05;2.50;;;18.20;39.30;;;;;;5009618;28;20037;-62
2021/04/06 08:48:50;;;;;;;8.02;2.00;;;16.80;38.60;;;;;;4999255;28;20144;-61
2021/04/06 08:51:43;;;;;;;7.07;2.25;;;15.30;39.60;;;;;;5005366;28;20606;-61
2021/04/06 08:54:13;;;;;;;9.10;2.28;;;13.90;41.00;;;;;;5007607;28;20049;-61
2021/04/06 08:57:03;;;;;;;8.85;2.08;;;12.60;43.00;;;;;;5005053;28;20049;-61
2021/04/06 08:59:37;;;;;;;5.63;1.70;;;11.70;44.30;;;;;;5006982;28;20037;-61
2021/04/06 09:02:12;;;;;;;4.53;2.00;;;11.00;45.90;;;;;;5010905;28;20038;-61
2021/04/06 09:04:42;;;;;;;5.72;2.20;;;10.60;47.10;;;;;;5012181;28;20136;-61
2021/04/06 09:07:20;;;;;;;10.25;2.85;;;10.30;48.20;;;;;;5003475;28;20117;-61
2021/04/06 09:09:49;;;;;;;10.95;2.75;;;11.00;53.60;;;;;;4999723;28;20124;-61
2021/04/06 09:12:15;;;;;;;9.85;2.10;;;12.90;53.00;;;;;;5000293;28;20041;-61
2021/04/06 09:14:41;;;;;;;9.65;2.42;;;15.20;49.80;;;;;;5004109;28;20033;-61
2021/04/06 09:17:07;;;;;;;8.60;2.58;;;17.30;46.40;;;;;;4995675;28;20038;-61
2021/04/06 09:19:37;;;;;;;10.52;2.42;;;19.20;42.40;;;;;;5006202;28;20128;-62
2021/04/06 09:22:06;;;;;;;10.35;2.03;;;20.60;38.70;;;;;;5005460;28;20497;-62
2021/04/06 09:24:35;;;;;;;6.07;2.25;;;21.00;37.20;;;;;;5004705;28;20037;-62
2021/04/06 09:27:03;;;;;;;28.67;3.40;;;21.00;36.00;;;;;;4999863;28;20049;-62
2021/04/06 09:29:34;;;;;;;12.60;2.65;;;21.30;36.90;;;;;;5003302;28;20048;-62
2021/04/06 09:32:08;;;;;;;8.90;2.08;;;21.90;35.10;;;;;;5001819;28;20044;-62
2021/04/06 09:34:41;;;;;;;10.10;2.20;;;22.60;34.00;;;;;;5007242;28;20357;-62
2021/04/06 09:37:09;;;;;;;8.77;2.05;;;22.60;32.60;;;;;;5006120;28;20025;-62
2021/04/06 09:39:39;;;;;;;20.05;2.42;;;22.30;32.80;;;;;;5006779;28;20851;-62
2021/04/06 09:42:08;;;;;;;5.82;1.85;;;22.20;33.90;;;;;;5003004;28;20034;-63
2021/04/06 09:44:38;;;;;;;6.45;1.60;;;22.60;33.20;;;;;;5001283;28;20056;-62
2021/04/06 09:47:07;;;;;;;7.40;1.65;;;23.10;32.20;;;;;;4996249;28;20037;-63
2021/04/06 09:49:35;;;;;;;8.32;1.90;;;23.20;31.00;;;;;;5003991;28;20040;-63
2021/04/06 09:52:05;;;;;;;6.90;1.90;;;23.50;30.60;;;;;;5001021;28;20042;-63
2021/04/06 09:54:38;;;;;;;6.55;1.90;;;23.60;30.00;;;;;;5005357;28;20083;-63
2021/04/06 09:57:11;;;;;;;9.18;1.95;;;23.80;30.40;;;;;;4997442;28;20114;-64
2021/04/06 09:59:45;;;;;;;11.20;2.00;;;24.10;29.30;;;;;;5000468;28;20048;-63
2021/04/06 10:02:16;;;;;;;7.72;2.08;;;23.70;28.90;;;;;;4996392;28;20614;-63
2021/04/06 10:04:50;;;;;;;7.05;1.70;;;22.90;29.70;;;;;;5002821;28;20045;-63
2021/04/06 10:07:32;;;;;;;11.45;2.08;;;22.40;30.80;;;;;;5008630;28;20048;-63
2021/04/06 10:10:16;;;;;;;4.55;1.88;;;22.40;30.40;;;;;;5003909;28;20037;-63
2021/04/06 10:12:42;;;;;;;7.43;2.00;;;22.50;30.20;;;;;;5014031;28;20081;-63
2021/04/06 10:15:09;;;;;;;6.88;1.63;;;23.00;30.00;;;;;;5002770;28;20513;-62
2021/04/06 10:17:42;;;;;;;5.88;1.67;;;23.60;30.00;;;;;;5000280;28;20152;-63
2021/04/06 10:20:08;;;;;;;7.00;1.90;;;24.20;29.10;;;;;;5012695;28;20052;-65
2021/04/06 10:22:51;;;;;;;6.90;1.65;;;24.90;28.60;;;;;;5007082;28;20033;-64
2021/04/06 10:25:36;;;;;;;8.57;1.77;;;25.40;27.60;;;;;;5010173;28;20040;-63
2021/04/06 10:28:06;;;;;;;5.78;1.88;;;25.70;26.60;;;;;;5010795;28;20119;-63
2021/04/06 10:30:37;;;;;;;7.70;1.90;;;;;;;;;;5005870;28;20063;-64
2021/04/06 10:33:27;;;;;;;7.63;1.75;;;25.80;26.30;;;;;;5026080;28;20531;-63
2021/04/06 10:36:02;;;;;;;7.03;1.25;;;23.90;26.10;;;;;;5003748;28;20036;-62
2021/04/06 10:38:38;;;;;;;1.58;0.73;;;21.70;27.00;;;;;;5010283;28;20103;-62
2021/04/06 10:41:09;;;;;;;4.65;0.93;;;19.50;28.90;;;;;;5001538;28;20174;-62
2021/04/06 10:43:37;;;;;;;1.63;0.65;;;17.40;31.20;;;;;;4978692;28;20108;-62
2021/04/06 10:46:10;;;;;;;6.50;0.65;;;15.80;33.30;;;;;;4987118;28;20133;-64
2021/04/06 10:48:39;;;;;;;8.18;0.95;;;14.70;35.30;;;;;;4993898;28;20465;-62
2021/04/06 10:51:23;;;;;;;1.80;0.80;;;13.80;37.10;;;;;;5005838;28;20041;-62
2021/04/06 10:53:54;;;;;;;5.05;1.17;;;13.10;38.60;;;;;;5011504;28;20048;-63
2021/04/06 10:56:31;;;;;;;6.80;1.45;;;12.70;40.00;;;;;;5006198;28;20589;-63
2021/04/06 10:58:59;;;;;;;6.03;1.58;;;12.60;42.70;;;;;;5002859;28;20052;-62
2021/04/06 11:01:47;;;;;;;4.72;1.45;;;13.50;45.10;;;;;;4997693;28;20041;-64
2021/04/06 11:04:19;;;;;;;3.05;1.27;;;15.50;44.20;;;;;;5003887;28;20117;-64
2021/04/06 11:06:48;;;;;;;5.40;1.50;;;17.80;41.20;;;;;;5008829;28;20064;-64
2021/04/06 11:09:23;;;;;;;8.63;1.63;;;19.70;37.60;;;;;;5002928;28;20128;-63
2021/04/06 11:11:51;;;;;;;7.13;1.30;;;21.00;35.10;;;;;;4997897;28;20112;-64
2021/04/06 11:14:19;;;;;;;4.55;1.50;;;22.00;34.20;;;;;;4999559;28;20037;-63
2021/04/06 11:16:45;;;;;;;2.50;1.23;;;22.80;32.40;;;;;;5011499;28;20483;-63
2021/04/06 11:19:32;;;;;;;2.08;0.90;;;23.40;30.80;;;;;;5006261;28;20352;-63
2021/04/06 11:22:06;;;;;;;7.45;1.40;;;23.80;30.00;;;;;;4992923;28;20030;-64
2021/04/06 11:24:35;;;;;;;3.78;1.25;;;24.00;28.50;;;;;;4989938;28;20041;-64
2021/04/06 11:27:04;;;;;;;4.57;1.27;;;23.90;28.80;;;;;;4977507;28;20118;-64
2021/04/06 11:29:36;;;;;;;7.80;1.60;;;23.80;28.10;;;;;;4986699;28;20029;-64
2021/04/06 11:32:10;;;;;;;8.35;1.65;;;23.30;28.10;;;;;;4959071;28;20050;-63
2021/04/06 11:34:36;;;;;;;7.07;1.40;;;22.10;28.10;;;;;;4986821;28;20040;-63
2021/04/06 11:37:05;;;;;;;4.90;1.30;;;20.40;28.70;;;;;;4999545;28;20041;-64
2021/04/06 11:39:35;;;;;;;3.53;1.15;;;18.70;30.30;;;;;;4983729;28;20068;-63
2021/04/06 11:42:02;;;;;;;6.55;1.40;;;17.20;32.70;;;;;;4975949;28;20284;-63
2021/04/06 11:44:28;;;;;;;7.97;1.85;;;16.20;34.40;;;;;;4983303;28;20042;-63
2021/04/06 11:46:54;;;;;;;8.20;2.00;;;15.50;36.50;;;;;;4984373;28;20037;-63
2021/04/06 11:49:21;;;;;;;7.32;1.90;;;15.50;39.40;;;;;;4968844;28;20736;-64
2021/04/06 11:51:48;;;;;;;7.22;1.85;;;15.90;38.60;;;;;;4987395;28;20096;-64
2021/04/06 11:54:15;;;;;;;6.50;1.77;;;16.20;38.80;;;;;;5000865;28;20497;-63
2021/04/06 11:56:41;;;;;;;11.25;2.55;;;16.40;37.50;;;;;;5001150;28;21569;-64
2021/04/06 11:59:07;;;;;;;8.25;1.92;;;16.50;38.40;;;;;;5010294;28;20044;-65
2021/04/06 12:01:33;;;;;;;7.90;1.90;;;16.60;38.70;;;;;;4995982;28;20052;-65
2021/04/06 12:04:02;;;;;;;8.65;1.98;;;16.60;38.20;;;;;;4994350;28;20156;-64
2021/04/06 12:06:30;;;;;;;8.75;2.17;;;16.40;38.00;;;;;;5003217;28;20042;-64
2021/04/06 12:08:58;;;;;;;16.67;2.58;;;16.10;37.40;;;;;;4997592;28;20041;-64
2021/04/06 12:11:24;;;;;;;7.90;1.70;;;15.60;37.80;;;;;;4994186;28;20419;-65
2021/04/06 12:13:52;;;;;;;6.38;2.47;;;15.10;38.60;;;;;;5009120;28;21454;-64
2021/04/06 12:16:18;;;;;;;9.75;2.20;;;14.70;39.00;;;;;;4996785;28;20624;-64
2021/04/06 12:18:46;;;;;;;8.05;1.80;;;14.30;39.60;;;;;;5009465;28;20045;-63
2021/04/06 12:21:14;;;;;;;7.97;1.50;;;13.90;39.90;;;;;;5014927;28;20041;-64
2021/04/06 12:23:43;;;;;;;6.97;1.70;;;13.60;40.50;;;;;;5011992;28;20095;-64
2021/04/06 12:26:11;;;;;;;13.25;2.35;;;13.40;41.00;;;;;;5007935;28;20037;-64
2021/04/06 12:28:37;;;;;;;11.88;2.00;;;13.20;41.10;;;;;;5003508;28;20168;-64
2021/04/06 12:31:04;;;;;;;14.55;2.20;;;13.10;40.80;;;;;;5004801;28;20236;-64
2021/04/06 12:33:31;;;;;;;10.77;2.10;;;13.00;40.70;;;;;;5019558;28;20049;-64
2021/04/06 12:35:57;;;;;;;5.88;1.88;;;12.80;40.80;;;;;;5004281;28;20412;-64
2021/04/06 12:38:23;;;;;;;8.60;1.63;;;12.60;41.30;;;;;;4997526;28;20120;-62
2021/04/06 12:40:48;;;;;;;9.25;2.05;;;12.30;42.00;;;;;;5006271;28;20491;-63
2021/04/06 12:43:14;;;;;;;11.90;2.13;;;12.10;42.70;;;;;;5008548;28;20080;-63
2021/04/06 12:45:39;;;;;;;10.00;2.05;;;11.90;43.10;;;;;;5009028;28;20781;-62
2021/04/06 12:48:05;;;;;;;16.25;3.05;;;11.80;43.60;;;;;;5003130;28;20079;-62
2021/04/06 12:50:33;;;;;;;13.10;2.42;;;11.70;43.80;;;;;;5001237;28;20091;-62
2021/04/06 12:53:01;;;;;;;13.13;2.63;;;11.60;43.80;;;;;;5007348;28;20041;-63
2021/04/06 12:55:31;;;;;;;6.20;2.03;;;11.50;44.00;;;;;;4996050;28;20037;-62
2021/04/06 12:57:57;;;;;;;12.93;2.35;;;11.60;44.60;;;;;;4997873;28;20036;-65
2021/04/06 13:00:26;;;;;;;7.03;1.65;;;12.00;45.60;;;;;;4999346;28;20033;-64
2021/04/06 13:02:51;;;;;;;8.15;1.70;;;12.50;44.80;;;;;;5001323;28;20431;-65
2021/04/06 13:05:17;;;;;;;7.18;1.60;;;12.90;44.50;;;;;;5005393;28;20042;-64